sensor_id;sensor_type;location;lat;lon;timestamp;P1;durP1;ratioP1;P2;durP2;ratioP2
29824;SDS011;16713;52.916;12.834;2023-03-14T11:26:53;6.72;;;1.40;;
29824;SDS011;16713;52.916;12.834;2023-03-14T11:32:00;5.20;;;1.80;;
29824;SDS011;16713;52.916;12.834;2023-03-14T11:37:35;4.85;;;1.45;;
29824;SDS011;16713;52.916;12.834;2023-03-14T11:40:21;5.72;;;1.63;;
29824;SDS011;16713;52.916;12.834;2023-03-14T11:42:53;3.30;;;1.33;;
29824;SDS011;16713;52.916;12.834;2023-03-14T11:45:33;3.88;;;1.90;;
29824;SDS011;16713;52.916;12.834;2023-03-14T11:51:29;2.50;;;0.90;;
29824;SDS011;16713;52.916;12.834;2023-03-14T11:54:00;1.92;;;0.80;;
29824;SDS011;16713;52.916;12.834;2023-03-14T11:56:36;1.92;;;1.00;;
29824;SDS011;16713;52.916;12.834;2023-03-14T11:59:16;2.38;;;1.00;;
29824;SDS011;16713;52.916;12.834;2023-03-14T12:01:54;4.30;;;0.93;;
29824;SDS011;16713;52.916;12.834;2023-03-14T12:07:23;5.40;;;1.13;;
29824;SDS011;16713;52.916;12.834;2023-03-14T12:09:59;1.13;;;1.00;;
29824;SDS011;16713;52.916;12.834;2023-03-14T12:12:25;3.60;;;0.95;;
29824;SDS011;16713;52.916;12.834;2023-03-14T12:14:55;2.00;;;0.90;;
29824;SDS011;16713;52.916;12.834;2023-03-14T12:17:39;2.33;;;1.00;;
29824;SDS011;16713;52.916;12.834;2023-03-14T12:20:19;2.35;;;1.00;;
29824;SDS011;16713;52.916;12.834;2023-03-14T12:23:11;3.10;;;0.98;;
29824;SDS011;16713;52.916;12.834;2023-03-14T12:25:38;4.43;;;1.00;;
29824;SDS011;16713;52.916;12.834;2023-03-14T12:28:15;1.30;;;0.75;;
29824;SDS011;16713;52.916;12.834;2023-03-14T12:30:45;2.05;;;0.75;;
29824;SDS011;16713;52.916;12.834;2023-03-14T12:35:50;2.15;;;0.90;;
29824;SDS011;16713;52.916;12.834;2023-03-14T12:39:01;3.00;;;0.65;;
29824;SDS011;16713;52.916;12.834;2023-03-14T12:45:13;3.10;;;1.10;;
29824;SDS011;16713;52.916;12.834;2023-03-14T12:49:46;3.92;;;0.90;;
29824;SDS011;16713;52.916;12.834;2023-03-14T12:52:22;3.20;;;0.88;;
29824;SDS011;16713;52.916;12.834;2023-03-14T13:01:23;1.27;;;0.80;;
29824;SDS011;16713;52.916;12.834;2023-03-14T13:06:50;1.92;;;0.77;;
29824;SDS011;16713;52.916;12.834;2023-03-14T13:11:56;2.15;;;0.98;;
29824;SDS011;16713;52.916;12.834;2023-03-14T13:14:29;3.00;;;1.08;;
29824;SDS011;16713;52.916;12.834;2023-03-14T13:17:00;3.53;;;0.90;;
29824;SDS011;16713;52.916;12.834;2023-03-14T13:19:55;2.42;;;0.95;;
29824;SDS011;16713;52.916;12.834;2023-03-14T13:22:26;3.28;;;0.75;;
29824;SDS011;16713;52.916;12.834;2023-03-14T13:25:05;3.70;;;0.90;;
29824;SDS011;16713;52.916;12.834;2023-03-14T13:27:36;0.60;;;0.50;;
29824;SDS011;16713;52.916;12.834;2023-03-14T13:30:18;1.75;;;0.50;;
29824;SDS011;16713;52.916;12.834;2023-03-14T13:33:03;1.02;;;0.47;;
29824;SDS011;16713;52.916;12.834;2023-03-14T13:35:38;2.42;;;0.35;;
29824;SDS011;16713;52.916;12.834;2023-03-14T13:38:15;0.88;;;0.40;;
29824;SDS011;16713;52.916;12.834;2023-03-14T13:40:44;0.82;;;0.70;;
29824;SDS011;16713;52.916;12.834;2023-03-14T13:43:23;0.70;;;0.70;;
29824;SDS011;16713;52.916;12.834;2023-03-14T13:45:55;3.08;;;0.70;;
29824;SDS011;16713;52.916;12.834;2023-03-14T13:48:28;3.33;;;0.88;;
29824;SDS011;16713;52.916;12.834;2023-03-14T13:50:58;14.23;;;1.70;;
29824;SDS011;16713;52.916;12.834;2023-03-14T13:53:28;3.10;;;1.20;;
29824;SDS011;16713;52.916;12.834;2023-03-14T13:55:55;3.60;;;1.40;;
29824;SDS011;16713;52.916;12.834;2023-03-14T13:58:23;3.92;;;1.13;;
29824;SDS011;16713;52.916;12.834;2023-03-14T14:01:05;2.45;;;1.83;;
29824;SDS011;16713;52.916;12.834;2023-03-14T14:03:39;1.65;;;1.00;;
29824;SDS011;16713;52.916;12.834;2023-03-14T14:06:10;1.33;;;1.23;;
29824;SDS011;16713;52.916;12.834;2023-03-14T14:08:45;3.53;;;0.95;;
29824;SDS011;16713;52.916;12.834;2023-03-14T14:11:17;4.20;;;1.65;;
29824;SDS011;16713;52.916;12.834;2023-03-14T14:14:12;1.90;;;1.10;;
29824;SDS011;16713;52.916;12.834;2023-03-14T14:16:44;2.65;;;1.02;;
29824;SDS011;16713;52.916;12.834;2023-03-14T14:19:12;3.10;;;0.98;;
29824;SDS011;16713;52.916;12.834;2023-03-14T14:21:41;0.57;;;0.40;;
29824;SDS011;16713;52.916;12.834;2023-03-14T14:24:12;0.95;;;0.32;;
29824;SDS011;16713;52.916;12.834;2023-03-14T14:26:41;0.30;;;0.30;;
29824;SDS011;16713;52.916;12.834;2023-03-14T14:29:20;0.77;;;0.45;;
29824;SDS011;16713;52.916;12.834;2023-03-14T14:34:29;0.55;;;0.50;;
29824;SDS011;16713;52.916;12.834;2023-03-14T14:37:13;1.00;;;0.52;;
29824;SDS011;16713;52.916;12.834;2023-03-14T14:40:13;0.30;;;0.30;;
29824;SDS011;16713;52.916;12.834;2023-03-14T14:42:45;0.88;;;0.68;;
29824;SDS011;16713;52.916;12.834;2023-03-14T14:45:19;1.05;;;0.60;;
29824;SDS011;16713;52.916;12.834;2023-03-14T14:47:51;2.03;;;1.23;;
29824;SDS011;16713;52.916;12.834;2023-03-14T14:50:30;2.45;;;1.00;;
29824;SDS011;16713;52.916;12.834;2023-03-14T14:52:58;0.45;;;0.45;;
29824;SDS011;16713;52.916;12.834;2023-03-14T14:55:39;0.50;;;0.45;;
29824;SDS011;16713;52.916;12.834;2023-03-14T15:01:18;1.63;;;0.45;;
29824;SDS011;16713;52.916;12.834;2023-03-14T15:03:50;0.60;;;0.35;;
29824;SDS011;16713;52.916;12.834;2023-03-14T15:06:19;0.90;;;0.30;;
29824;SDS011;16713;52.916;12.834;2023-03-14T15:08:46;0.68;;;0.43;;
29824;SDS011;16713;52.916;12.834;2023-03-14T15:11:18;1.45;;;0.88;;
29824;SDS011;16713;52.916;12.834;2023-03-14T15:13:50;0.38;;;0.38;;
29824;SDS011;16713;52.916;12.834;2023-03-14T15:16:22;1.35;;;0.80;;
29824;SDS011;16713;52.916;12.834;2023-03-14T15:18:54;4.63;;;0.98;;
29824;SDS011;16713;52.916;12.834;2023-03-14T15:21:22;0.50;;;0.50;;
29824;SDS011;16713;52.916;12.834;2023-03-14T15:23:50;2.65;;;0.63;;
29824;SDS011;16713;52.916;12.834;2023-03-14T15:26:18;3.13;;;0.70;;
29824;SDS011;16713;52.916;12.834;2023-03-14T15:28:47;2.40;;;1.33;;
29824;SDS011;16713;52.916;12.834;2023-03-14T15:31:14;0.82;;;0.82;;
29824;SDS011;16713;52.916;12.834;2023-03-14T15:33:44;3.80;;;1.73;;
29824;SDS011;16713;52.916;12.834;2023-03-14T15:36:16;10.75;;;5.13;;
29824;SDS011;16713;52.916;12.834;2023-03-14T15:38:49;4.10;;;2.38;;
29824;SDS011;16713;52.916;12.834;2023-03-14T15:41:16;6.55;;;2.00;;
29824;SDS011;16713;52.916;12.834;2023-03-14T15:43:44;2.10;;;0.77;;
29824;SDS011;16713;52.916;12.834;2023-03-14T15:46:11;2.05;;;0.75;;
29824;SDS011;16713;52.916;12.834;2023-03-14T15:48:38;1.80;;;0.82;;
29824;SDS011;16713;52.916;12.834;2023-03-14T15:51:05;1.42;;;0.88;;
29824;SDS011;16713;52.916;12.834;2023-03-14T15:53:31;2.30;;;0.90;;
29824;SDS011;16713;52.916;12.834;2023-03-14T15:55:58;4.05;;;1.67;;
29824;SDS011;16713;52.916;12.834;2023-03-14T15:58:25;3.47;;;1.40;;
29824;SDS011;16713;52.916;12.834;2023-03-14T16:00:52;6.80;;;1.25;;
29824;SDS011;16713;52.916;12.834;2023-03-14T16:03:18;2.45;;;1.60;;
29824;SDS011;16713;52.916;12.834;2023-03-14T16:05:45;4.07;;;1.80;;
29824;SDS011;16713;52.916;12.834;2023-03-14T16:08:12;2.92;;;1.48;;
29824;SDS011;16713;52.916;12.834;2023-03-14T16:10:38;1.33;;;0.80;;
29824;SDS011;16713;52.916;12.834;2023-03-14T16:13:05;1.80;;;1.20;;
29824;SDS011;16713;52.916;12.834;2023-03-14T16:15:32;3.80;;;1.23;;
29824;SDS011;16713;52.916;12.834;2023-03-14T16:17:58;8.30;;;2.00;;
29824;SDS011;16713;52.916;12.834;2023-03-14T16:20:31;4.20;;;1.38;;
29824;SDS011;16713;52.916;12.834;2023-03-14T16:23:12;4.47;;;1.70;;
29824;SDS011;16713;52.916;12.834;2023-03-14T16:25:44;3.55;;;1.50;;
29824;SDS011;16713;52.916;12.834;2023-03-14T16:28:10;4.07;;;1.50;;
29824;SDS011;16713;52.916;12.834;2023-03-14T16:30:37;1.77;;;1.20;;
29824;SDS011;16713;52.916;12.834;2023-03-14T16:33:03;5.18;;;1.65;;
29824;SDS011;16713;52.916;12.834;2023-03-14T16:35:38;4.93;;;1.52;;
29824;SDS011;16713;52.916;12.834;2023-03-14T16:38:05;6.50;;;2.10;;
29824;SDS011;16713;52.916;12.834;2023-03-14T16:40:32;4.15;;;2.05;;
29824;SDS011;16713;52.916;12.834;2023-03-14T16:42:58;10.60;;;2.05;;
29824;SDS011;16713;52.916;12.834;2023-03-14T16:45:41;9.18;;;2.20;;
29824;SDS011;16713;52.916;12.834;2023-03-14T16:48:08;6.75;;;2.00;;
29824;SDS011;16713;52.916;12.834;2023-03-14T16:50:34;11.18;;;1.88;;
29824;SDS011;16713;52.916;12.834;2023-03-14T16:53:00;7.95;;;2.70;;
29824;SDS011;16713;52.916;12.834;2023-03-14T16:55:28;8.07;;;3.13;;
29824;SDS011;16713;52.916;12.834;2023-03-14T16:57:54;8.10;;;2.75;;
29824;SDS011;16713;52.916;12.834;2023-03-14T17:00:21;12.52;;;2.45;;
29824;SDS011;16713;52.916;12.834;2023-03-14T17:02:48;9.38;;;2.25;;
29824;SDS011;16713;52.916;12.834;2023-03-14T17:05:14;8.25;;;2.67;;
29824;SDS011;16713;52.916;12.834;2023-03-14T17:07:41;9.30;;;2.80;;
29824;SDS011;16713;52.916;12.834;2023-03-14T17:10:07;7.72;;;2.22;;
29824;SDS011;16713;52.916;12.834;2023-03-14T17:12:36;6.15;;;2.80;;
29824;SDS011;16713;52.916;12.834;2023-03-14T17:15:02;7.45;;;2.63;;
29824;SDS011;16713;52.916;12.834;2023-03-14T17:17:29;10.27;;;2.00;;
29824;SDS011;16713;52.916;12.834;2023-03-14T17:19:55;14.57;;;2.78;;
29824;SDS011;16713;52.916;12.834;2023-03-14T17:22:22;4.80;;;2.30;;
29824;SDS011;16713;52.916;12.834;2023-03-14T17:24:54;11.95;;;2.75;;
29824;SDS011;16713;52.916;12.834;2023-03-14T17:27:21;6.85;;;1.90;;
29824;SDS011;16713;52.916;12.834;2023-03-14T17:29:47;9.80;;;2.45;;
29824;SDS011;16713;52.916;12.834;2023-03-14T17:32:14;11.70;;;2.58;;
29824;SDS011;16713;52.916;12.834;2023-03-14T17:34:42;7.22;;;2.20;;
29824;SDS011;16713;52.916;12.834;2023-03-14T17:37:09;13.35;;;2.70;;
29824;SDS011;16713;52.916;12.834;2023-03-14T17:39:37;12.27;;;2.53;;
29824;SDS011;16713;52.916;12.834;2023-03-14T17:42:05;14.18;;;3.88;;
29824;SDS011;16713;52.916;12.834;2023-03-14T17:44:32;12.00;;;2.45;;
29824;SDS011;16713;52.916;12.834;2023-03-14T17:46:59;5.63;;;2.30;;
29824;SDS011;16713;52.916;12.834;2023-03-14T17:49:26;8.48;;;2.75;;
29824;SDS011;16713;52.916;12.834;2023-03-14T17:51:53;11.60;;;2.90;;
29824;SDS011;16713;52.916;12.834;2023-03-14T17:54:19;13.32;;;2.33;;
29824;SDS011;16713;52.916;12.834;2023-03-14T17:56:46;10.48;;;1.90;;
29824;SDS011;16713;52.916;12.834;2023-03-14T17:59:14;7.00;;;2.35;;
29824;SDS011;16713;52.916;12.834;2023-03-14T18:01:41;10.95;;;2.20;;
29824;SDS011;16713;52.916;12.834;2023-03-14T18:04:07;13.05;;;2.28;;
29824;SDS011;16713;52.916;12.834;2023-03-14T18:06:34;14.30;;;2.60;;
29824;SDS011;16713;52.916;12.834;2023-03-14T18:09:00;11.57;;;2.83;;
29824;SDS011;16713;52.916;12.834;2023-03-14T18:11:29;17.38;;;2.95;;
29824;SDS011;16713;52.916;12.834;2023-03-14T18:13:57;10.25;;;2.92;;
29824;SDS011;16713;52.916;12.834;2023-03-14T18:16:26;12.40;;;2.78;;
29824;SDS011;16713;52.916;12.834;2023-03-14T18:18:53;16.30;;;3.45;;
29824;SDS011;16713;52.916;12.834;2023-03-14T18:21:22;8.30;;;2.75;;
29824;SDS011;16713;52.916;12.834;2023-03-14T18:23:49;10.77;;;2.72;;
29824;SDS011;16713;52.916;12.834;2023-03-14T18:26:16;14.07;;;2.97;;
29824;SDS011;16713;52.916;12.834;2023-03-14T18:28:43;7.18;;;2.47;;
29824;SDS011;16713;52.916;12.834;2023-03-14T18:31:12;11.98;;;2.40;;
29824;SDS011;16713;52.916;12.834;2023-03-14T18:33:44;7.72;;;2.60;;
29824;SDS011;16713;52.916;12.834;2023-03-14T18:36:11;13.27;;;3.03;;
29824;SDS011;16713;52.916;12.834;2023-03-14T18:38:38;10.10;;;2.58;;
29824;SDS011;16713;52.916;12.834;2023-03-14T18:41:09;8.90;;;2.28;;
29824;SDS011;16713;52.916;12.834;2023-03-14T18:43:37;10.82;;;2.50;;
29824;SDS011;16713;52.916;12.834;2023-03-14T18:46:04;7.07;;;1.45;;
29824;SDS011;16713;52.916;12.834;2023-03-14T18:48:31;12.10;;;2.35;;
29824;SDS011;16713;52.916;12.834;2023-03-14T18:50:58;17.67;;;3.30;;
29824;SDS011;16713;52.916;12.834;2023-03-14T18:53:25;11.90;;;2.25;;
29824;SDS011;16713;52.916;12.834;2023-03-14T18:56:00;9.68;;;2.42;;
29824;SDS011;16713;52.916;12.834;2023-03-14T18:58:27;13.85;;;2.78;;
29824;SDS011;16713;52.916;12.834;2023-03-14T19:00:58;12.23;;;2.28;;
29824;SDS011;16713;52.916;12.834;2023-03-14T19:03:29;11.73;;;2.38;;
29824;SDS011;16713;52.916;12.834;2023-03-14T19:05:58;9.68;;;2.63;;
29824;SDS011;16713;52.916;12.834;2023-03-14T19:08:26;18.52;;;2.83;;
29824;SDS011;16713;52.916;12.834;2023-03-14T19:10:54;12.00;;;2.90;;
29824;SDS011;16713;52.916;12.834;2023-03-14T19:13:24;10.63;;;1.98;;
29824;SDS011;16713;52.916;12.834;2023-03-14T19:15:52;6.55;;;1.80;;
29824;SDS011;16713;52.916;12.834;2023-03-14T19:18:18;8.32;;;1.92;;
29824;SDS011;16713;52.916;12.834;2023-03-14T19:20:46;11.43;;;2.13;;
29824;SDS011;16713;52.916;12.834;2023-03-14T19:23:25;10.27;;;2.22;;
29824;SDS011;16713;52.916;12.834;2023-03-14T19:25:52;11.45;;;2.25;;
29824;SDS011;16713;52.916;12.834;2023-03-14T19:28:20;12.68;;;2.28;;
29824;SDS011;16713;52.916;12.834;2023-03-14T19:30:47;8.02;;;1.60;;
29824;SDS011;16713;52.916;12.834;2023-03-14T19:33:15;10.25;;;1.90;;
29824;SDS011;16713;52.916;12.834;2023-03-14T19:35:42;16.25;;;2.08;;
29824;SDS011;16713;52.916;12.834;2023-03-14T19:38:09;14.93;;;2.10;;
29824;SDS011;16713;52.916;12.834;2023-03-14T19:40:36;14.63;;;3.65;;
29824;SDS011;16713;52.916;12.834;2023-03-14T19:43:04;16.30;;;2.97;;
29824;SDS011;16713;52.916;12.834;2023-03-14T19:45:31;16.23;;;2.33;;
29824;SDS011;16713;52.916;12.834;2023-03-14T19:48:03;8.80;;;2.75;;
29824;SDS011;16713;52.916;12.834;2023-03-14T19:50:31;9.10;;;2.50;;
29824;SDS011;16713;52.916;12.834;2023-03-14T19:52:58;13.27;;;3.05;;
29824;SDS011;16713;52.916;12.834;2023-03-14T19:55:29;18.90;;;2.40;;
29824;SDS011;16713;52.916;12.834;2023-03-14T19:57:59;9.90;;;2.60;;
29824;SDS011;16713;52.916;12.834;2023-03-14T20:00:26;10.05;;;2.17;;
29824;SDS011;16713;52.916;12.834;2023-03-14T20:02:52;13.27;;;2.33;;
29824;SDS011;16713;52.916;12.834;2023-03-14T20:05:19;13.25;;;2.70;;
29824;SDS011;16713;52.916;12.834;2023-03-14T20:07:47;13.70;;;2.53;;
29824;SDS011;16713;52.916;12.834;2023-03-14T20:10:16;14.75;;;3.17;;
29824;SDS011;16713;52.916;12.834;2023-03-14T20:12:44;12.32;;;2.00;;
29824;SDS011;16713;52.916;12.834;2023-03-14T20:15:12;10.88;;;2.20;;
29824;SDS011;16713;52.916;12.834;2023-03-14T20:17:46;15.57;;;3.05;;
29824;SDS011;16713;52.916;12.834;2023-03-14T20:20:17;18.50;;;3.75;;
29824;SDS011;16713;52.916;12.834;2023-03-14T20:22:45;14.52;;;2.50;;
29824;SDS011;16713;52.916;12.834;2023-03-14T20:25:13;12.88;;;2.55;;
29824;SDS011;16713;52.916;12.834;2023-03-14T20:27:44;10.13;;;2.55;;
29824;SDS011;16713;52.916;12.834;2023-03-14T20:30:12;9.60;;;2.63;;
29824;SDS011;16713;52.916;12.834;2023-03-14T20:32:42;10.25;;;1.98;;
29824;SDS011;16713;52.916;12.834;2023-03-14T20:35:10;14.00;;;3.35;;
29824;SDS011;16713;52.916;12.834;2023-03-14T20:37:38;11.13;;;2.28;;
29824;SDS011;16713;52.916;12.834;2023-03-14T20:40:05;10.85;;;2.65;;
29824;SDS011;16713;52.916;12.834;2023-03-14T20:42:33;13.25;;;2.28;;
29824;SDS011;16713;52.916;12.834;2023-03-14T20:44:59;20.20;;;3.63;;
29824;SDS011;16713;52.916;12.834;2023-03-14T20:47:26;16.45;;;3.83;;
29824;SDS011;16713;52.916;12.834;2023-03-14T20:49:52;12.27;;;2.40;;
29824;SDS011;16713;52.916;12.834;2023-03-14T20:52:19;15.57;;;2.70;;
29824;SDS011;16713;52.916;12.834;2023-03-14T20:54:45;15.80;;;2.17;;
29824;SDS011;16713;52.916;12.834;2023-03-14T20:57:12;8.65;;;2.25;;
29824;SDS011;16713;52.916;12.834;2023-03-14T20:59:40;10.93;;;3.40;;
29824;SDS011;16713;52.916;12.834;2023-03-14T21:02:08;13.73;;;4.13;;
29824;SDS011;16713;52.916;12.834;2023-03-14T21:04:35;8.60;;;2.20;;
29824;SDS011;16713;52.916;12.834;2023-03-14T21:07:02;12.63;;;2.83;;
29824;SDS011;16713;52.916;12.834;2023-03-14T21:09:28;18.50;;;2.75;;
29824;SDS011;16713;52.916;12.834;2023-03-14T21:11:55;10.30;;;2.35;;
29824;SDS011;16713;52.916;12.834;2023-03-14T21:14:21;12.43;;;2.03;;
29824;SDS011;16713;52.916;12.834;2023-03-14T21:16:48;11.85;;;2.33;;
29824;SDS011;16713;52.916;12.834;2023-03-14T21:19:15;10.88;;;2.40;;
29824;SDS011;16713;52.916;12.834;2023-03-14T21:21:42;12.55;;;2.42;;
29824;SDS011;16713;52.916;12.834;2023-03-14T21:24:09;16.15;;;2.53;;
29824;SDS011;16713;52.916;12.834;2023-03-14T21:26:35;10.43;;;2.10;;
29824;SDS011;16713;52.916;12.834;2023-03-14T21:29:02;10.75;;;2.20;;
29824;SDS011;16713;52.916;12.834;2023-03-14T21:31:29;13.02;;;3.38;;
29824;SDS011;16713;52.916;12.834;2023-03-14T21:33:56;7.97;;;1.73;;
29824;SDS011;16713;52.916;12.834;2023-03-14T21:36:24;14.13;;;2.40;;
29824;SDS011;16713;52.916;12.834;2023-03-14T21:38:51;14.27;;;2.13;;
29824;SDS011;16713;52.916;12.834;2023-03-14T21:41:18;13.35;;;2.80;;
29824;SDS011;16713;52.916;12.834;2023-03-14T21:43:44;13.30;;;4.63;;
29824;SDS011;16713;52.916;12.834;2023-03-14T21:46:11;11.68;;;2.72;;
29824;SDS011;16713;52.916;12.834;2023-03-14T21:48:40;15.90;;;2.67;;
29824;SDS011;16713;52.916;12.834;2023-03-14T21:51:07;12.07;;;2.72;;
29824;SDS011;16713;52.916;12.834;2023-03-14T21:53:33;12.38;;;2.30;;
29824;SDS011;16713;52.916;12.834;2023-03-14T21:56:00;7.95;;;2.50;;
29824;SDS011;16713;52.916;12.834;2023-03-14T21:58:27;12.27;;;2.35;;
29824;SDS011;16713;52.916;12.834;2023-03-14T22:00:59;8.90;;;3.05;;
29824;SDS011;16713;52.916;12.834;2023-03-14T22:03:28;11.45;;;2.28;;
29824;SDS011;16713;52.916;12.834;2023-03-14T22:05:55;13.48;;;2.40;;
29824;SDS011;16713;52.916;12.834;2023-03-14T22:08:21;7.55;;;2.35;;
29824;SDS011;16713;52.916;12.834;2023-03-14T22:10:49;14.50;;;2.55;;
29824;SDS011;16713;52.916;12.834;2023-03-14T22:13:17;11.18;;;2.63;;
29824;SDS011;16713;52.916;12.834;2023-03-14T22:15:45;14.73;;;2.10;;
29824;SDS011;16713;52.916;12.834;2023-03-14T22:18:16;9.82;;;1.92;;
29824;SDS011;16713;52.916;12.834;2023-03-14T22:20:43;9.00;;;2.65;;
29824;SDS011;16713;52.916;12.834;2023-03-14T22:23:11;8.95;;;1.67;;
29824;SDS011;16713;52.916;12.834;2023-03-14T22:25:41;9.40;;;3.65;;
29824;SDS011;16713;52.916;12.834;2023-03-14T22:28:09;10.90;;;2.20;;
29824;SDS011;16713;52.916;12.834;2023-03-14T22:30:36;11.98;;;2.10;;
29824;SDS011;16713;52.916;12.834;2023-03-14T22:33:03;9.43;;;1.95;;
29824;SDS011;16713;52.916;12.834;2023-03-14T22:35:30;10.95;;;1.95;;
29824;SDS011;16713;52.916;12.834;2023-03-14T22:37:56;10.13;;;1.90;;
29824;SDS011;16713;52.916;12.834;2023-03-14T22:40:23;18.23;;;4.68;;
29824;SDS011;16713;52.916;12.834;2023-03-14T22:42:52;13.20;;;3.08;;
29824;SDS011;16713;52.916;12.834;2023-03-14T22:45:19;11.90;;;2.33;;
29824;SDS011;16713;52.916;12.834;2023-03-14T22:47:46;10.93;;;1.80;;
29824;SDS011;16713;52.916;12.834;2023-03-14T22:50:13;16.67;;;2.33;;
29824;SDS011;16713;52.916;12.834;2023-03-14T22:52:39;11.70;;;2.95;;
29824;SDS011;16713;52.916;12.834;2023-03-14T22:55:06;13.90;;;2.22;;
29824;SDS011;16713;52.916;12.834;2023-03-14T22:57:33;9.27;;;2.30;;
29824;SDS011;16713;52.916;12.834;2023-03-14T23:00:00;12.55;;;1.88;;
29824;SDS011;16713;52.916;12.834;2023-03-14T23:02:26;12.25;;;3.20;;
29824;SDS011;16713;52.916;12.834;2023-03-14T23:04:52;12.77;;;2.45;;
29824;SDS011;16713;52.916;12.834;2023-03-14T23:07:19;11.43;;;1.88;;
29824;SDS011;16713;52.916;12.834;2023-03-14T23:09:45;14.02;;;2.10;;
29824;SDS011;16713;52.916;12.834;2023-03-14T23:12:11;19.33;;;4.00;;
29824;SDS011;16713;52.916;12.834;2023-03-14T23:14:42;18.23;;;2.70;;
29824;SDS011;16713;52.916;12.834;2023-03-14T23:17:09;11.40;;;1.67;;
29824;SDS011;16713;52.916;12.834;2023-03-14T23:19:35;14.18;;;3.47;;
29824;SDS011;16713;52.916;12.834;2023-03-14T23:22:04;13.02;;;1.90;;
29824;SDS011;16713;52.916;12.834;2023-03-14T23:24:34;11.20;;;2.60;;
29824;SDS011;16713;52.916;12.834;2023-03-14T23:27:01;10.13;;;1.85;;
29824;SDS011;16713;52.916;12.834;2023-03-14T23:29:28;14.93;;;1.98;;
29824;SDS011;16713;52.916;12.834;2023-03-14T23:31:54;12.10;;;2.22;;
29824;SDS011;16713;52.916;12.834;2023-03-14T23:34:21;13.05;;;1.90;;
29824;SDS011;16713;52.916;12.834;2023-03-14T23:36:50;17.85;;;1.92;;
29824;SDS011;16713;52.916;12.834;2023-03-14T23:39:16;14.77;;;2.83;;
29824;SDS011;16713;52.916;12.834;2023-03-14T23:41:43;12.48;;;2.40;;
29824;SDS011;16713;52.916;12.834;2023-03-14T23:44:10;18.13;;;2.38;;
29824;SDS011;16713;52.916;12.834;2023-03-14T23:46:38;7.68;;;1.77;;
29824;SDS011;16713;52.916;12.834;2023-03-14T23:49:04;12.25;;;1.85;;
29824;SDS011;16713;52.916;12.834;2023-03-14T23:51:31;11.73;;;2.53;;
29824;SDS011;16713;52.916;12.834;2023-03-14T23:53:57;16.85;;;2.03;;
29824;SDS011;16713;52.916;12.834;2023-03-14T23:56:24;13.88;;;3.55;;
29824;SDS011;16713;52.916;12.834;2023-03-14T23:58:50;8.18;;;2.65;;
